Time;durP1;ratioP1;P1;durP2;ratioP2;P2;SDS_P1;SDS_P2;PMS_P1;PMS_P2;Temp;Humidity;BMP_temperature;BMP_pressure;BME280_temperature;BME280_humidity;BME280_pressure;Samples;Min_cycle;Max_cycle;Signal;HPM_P1;HPM_P2
2021/03/01 00:02:19;;;;;;;67.38;29.25;;;;;;;2.61;100.00;103593.88;5002334;28;20068;-72
2021/03/01 00:04:45;;;;;;;51.25;32.20;;;;;;;2.70;100.00;103585.75;5001107;28;20163;-72
2021/03/01 00:07:10;;;;;;;54.35;34.47;;;;;;;2.53;100.00;103558.88;4999032;28;20041;-73
2021/03/01 00:09:36;;;;;;;54.78;33.65;;;;;;;2.75;100.00;103583.00;5003012;28;20041;-72
2021/03/01 00:12:01;;;;;;;58.67;34.67;;;;;;;2.90;100.00;103595.00;5000494;28;20441;-72
2021/03/01 00:14:27;;;;;;;65.25;35.88;;;;;;;2.99;100.00;103600.03;5006146;28;20030;-72
2021/03/01 00:16:52;;;;;;;67.82;38.50;;;;;;;3.05;100.00;103599.03;4998718;28;20059;-72
2021/03/01 00:19:18;;;;;;;71.93;36.72;;;;;;;3.02;100.00;103589.44;5001538;28;20034;-72
2021/03/01 00:21:43;;;;;;;62.80;35.45;;;;;;;3.19;100.00;103596.09;5002562;28;20034;-72
2021/03/01 00:24:09;;;;;;;63.95;37.00;;;;;;;3.19;100.00;103599.56;5005155;28;20042;-73
2021/03/01 00:26:34;;;;;;;68.03;36.05;;;;;;;3.24;100.00;103609.16;5000315;28;20149;-72
2021/03/01 00:29:00;;;;;;;60.38;36.00;;;;;;;3.29;100.00;103601.97;5001772;28;20566;-72
2021/03/01 00:31:25;;;;;;;67.40;35.28;;;;;;;3.25;100.00;103601.19;5001990;28;20512;-72
2021/03/01 00:33:51;;;;;;;63.17;35.80;;;;;;;3.18;100.00;103595.19;5000583;28;20069;-73
2021/03/01 00:36:16;;;;;;;57.28;33.05;;;;;;;3.23;100.00;103595.06;4997178;28;20080;-72
2021/03/01 00:38:42;;;;;;;56.42;34.42;;;;;;;3.27;100.00;103604.66;5000083;28;20397;-72
2021/03/01 00:41:07;;;;;;;67.97;35.63;;;;;;;2.99;100.00;103556.94;5000950;28;20543;-72
2021/03/01 00:43:33;;;;;;;61.83;33.47;;;;;;;2.97;100.00;103554.34;5002802;28;20135;-73
2021/03/01 00:45:58;;;;;;;62.20;34.88;;;;;;;3.24;100.00;103598.59;4997929;28;20041;-72
2021/03/01 00:48:24;;;;;;;63.67;36.60;;;;;;;3.22;100.00;103604.78;5001085;28;20050;-72
2021/03/01 00:50:50;;;;;;;60.85;31.98;;;;;;;3.20;100.00;103600.41;4999695;28;20137;-72
2021/03/01 00:53:27;;;;;;;59.53;33.55;;;;;;;3.23;100.00;103605.63;5004275;28;20041;-71
2021/03/01 00:55:53;;;;;;;56.65;31.88;;;;;;;3.26;100.00;103604.72;4997594;28;20034;-71
2021/03/01 00:58:19;;;;;;;52.28;30.48;;;;;;;3.26;100.00;103602.94;5002820;28;20049;-71
2021/03/01 01:00:46;;;;;;;50.15;30.33;;;;;;;3.25;100.00;103598.56;5000766;28;20107;-71
2021/03/01 01:03:13;;;;;;;50.75;31.90;;;;;;;3.18;100.00;103604.91;5003402;28;20049;-71
2021/03/01 01:05:39;;;;;;;58.83;30.80;;;;;;;3.13;100.00;103594.44;4995429;28;20057;-71
2021/03/01 01:08:05;;;;;;;68.05;31.08;;;;;;;3.02;100.00;103586.78;5003112;28;20026;-71
2021/03/01 01:10:30;;;;;;;51.88;28.67;;;;;;;3.20;100.00;103596.03;4996724;28;20038;-71
2021/03/01 01:12:56;;;;;;;57.70;30.30;;;;;;;3.19;100.00;103594.28;5000332;28;20033;-71
2021/03/01 01:15:21;;;;;;;52.58;28.02;;;;;;;3.17;100.00;103590.81;4997145;28;20310;-71
2021/03/01 01:17:47;;;;;;;58.92;30.35;;;;;;;3.13;100.00;103590.94;5001627;28;20061;-72
2021/03/01 01:20:14;;;;;;;59.13;32.55;;;;;;;3.14;100.00;103585.59;5002391;28;20030;-72
2021/03/01 01:22:40;;;;;;;58.70;31.83;;;;;;;3.14;100.00;103590.88;5003452;28;20025;-71
2021/03/01 01:25:08;;;;;;;55.83;32.10;;;;;;;3.20;100.00;103584.59;4998010;28;20598;-71
2021/03/01 01:27:33;;;;;;;61.80;33.27;;;;;;;2.93;100.00;103541.28;5000264;28;20041;-72
2021/03/01 01:29:59;;;;;;;60.70;31.90;;;;;;;3.17;100.00;103567.06;5001859;28;20120;-71
2021/03/01 01:32:25;;;;;;;70.40;31.92;;;;;;;3.25;100.00;103576.59;5001582;28;20037;-71
2021/03/01 01:34:50;;;;;;;65.18;31.52;;;;;;;3.02;100.00;103538.41;5003865;28;20022;-72
2021/03/01 01:37:15;;;;;;;67.22;33.50;;;;;;;3.22;100.00;103575.75;4995399;28;20116;-72
2021/03/01 01:39:41;;;;;;;59.10;32.92;;;;;;;3.24;100.00;103570.41;4998691;28;20025;-72
2021/03/01 01:42:07;;;;;;;61.13;32.75;;;;;;;3.28;100.00;103576.47;5000187;28;20586;-72
2021/03/01 01:44:32;;;;;;;67.15;33.40;;;;;;;3.30;100.00;103572.94;5001415;28;20037;-71
2021/03/01 01:46:57;;;;;;;64.15;32.13;;;;;;;3.28;100.00;103565.94;4995110;28;20562;-71
2021/03/01 01:49:23;;;;;;;62.17;31.55;;;;;;;3.31;100.00;103561.47;5003116;28;20037;-71
2021/03/01 01:51:49;;;;;;;68.72;34.33;;;;;;;3.32;100.00;103555.28;4998331;28;20098;-72
2021/03/01 01:54:14;;;;;;;65.32;32.88;;;;;;;3.38;100.00;103564.81;5003284;28;20034;-71
2021/03/01 01:56:40;;;;;;;66.25;32.83;;;;;;;2.57;100.00;103436.63;4995026;28;20048;-72
2021/03/01 01:59:06;;;;;;;68.15;34.70;;;;;;;3.36;100.00;103559.56;4998896;28;20037;-71
2021/03/01 02:01:32;;;;;;;66.63;34.40;;;;;;;3.34;100.00;103558.72;5017966;28;20129;-71
2021/03/01 02:04:02;;;;;;;66.22;33.97;;;;;;;3.37;100.00;103566.56;5001829;28;20029;-71
2021/03/01 02:06:43;;;;;;;65.28;32.63;;;;;;;3.46;100.00;103562.84;4998249;28;20030;-71
2021/03/01 02:09:28;;;;;;;59.17;32.03;;;;;;;3.45;100.00;103562.88;5001675;28;20025;-71
2021/03/01 02:12:17;;;;;;;62.05;30.92;;;;;;;3.36;100.00;103546.34;4999818;28;20233;-71
2021/03/01 02:15:08;;;;;;;63.90;32.67;;;;;;;3.42;100.00;103555.03;5002115;28;20040;-71
2021/03/01 02:17:35;;;;;;;60.67;31.55;;;;;;;3.43;100.00;103562.91;5000803;28;20032;-72
2021/03/01 02:20:01;;;;;;;61.35;30.60;;;;;;;3.39;100.00;103555.09;4999370;28;20042;-72
2021/03/01 02:22:27;;;;;;;57.47;29.27;;;;;;;3.30;100.00;103535.97;5002416;28;20034;-71
2021/03/01 02:25:04;;;;;;;56.25;30.40;;;;;;;3.30;100.00;103537.72;4998164;28;20388;-72
2021/03/01 02:27:32;;;;;;;55.78;30.17;;;;;;;3.42;100.00;103552.41;4999983;28;20611;-71
2021/03/01 02:30:26;;;;;;;52.55;29.13;;;;;;;3.38;100.00;103548.97;5000588;28;20029;-72
2021/03/01 02:33:12;;;;;;;63.22;30.55;;;;;;;3.30;100.00;103537.72;5004500;28;20570;-71
2021/03/01 02:35:41;;;;;;;60.90;30.00;;;;;;;3.34;100.00;103542.03;4997942;28;20017;-71
2021/03/01 02:38:09;;;;;;;58.75;31.80;;;;;;;3.21;100.00;103515.94;5001214;28;20104;-71
2021/03/01 02:40:36;;;;;;;59.15;31.23;;;;;;;3.44;100.00;103546.16;4998409;28;20635;-71
2021/03/01 02:43:04;;;;;;;57.67;29.73;;;;;;;3.49;100.00;103541.63;5001361;28;20042;-71
2021/03/01 02:45:29;;;;;;;60.47;30.77;;;;;;;3.48;100.00;103534.63;4996805;28;20285;-71
2021/03/01 02:47:57;;;;;;;60.65;30.42;;;;;;;3.53;100.00;103542.41;4999771;28;20495;-71
2021/03/01 02:50:24;;;;;;;58.97;30.67;;;;;;;3.52;100.00;103553.88;5012265;28;20042;-71
2021/03/01 02:52:51;;;;;;;56.80;28.15;;;;;;;3.32;100.00;103509.53;5001351;28;20328;-73
2021/03/01 02:55:17;;;;;;;52.60;28.77;;;;;;;3.25;100.00;103498.25;4997616;28;20057;-71
2021/03/01 02:57:44;;;;;;;58.50;30.67;;;;;;;3.53;100.00;103537.97;5000993;28;20463;-71
2021/03/01 03:00:12;;;;;;;58.13;28.77;;;;;;;3.57;100.00;103537.91;4983936;28;20546;-71
2021/03/01 03:02:39;;;;;;;58.90;29.03;;;;;;;3.58;100.00;103531.72;5001710;28;20033;-71
2021/03/01 03:05:06;;;;;;;61.25;29.13;;;;;;;3.53;100.00;103543.25;4997892;28;21049;-71
2021/03/01 03:07:33;;;;;;;58.10;28.17;;;;;;;3.40;100.00;103518.09;4998898;28;20029;-71
2021/03/01 03:10:00;;;;;;;53.83;28.00;;;;;;;3.56;100.00;103536.19;4997456;28;20065;-71
2021/03/01 03:12:26;;;;;;;54.67;28.08;;;;;;;3.39;100.00;103507.59;5001745;28;20365;-71
2021/03/01 03:14:53;;;;;;;55.85;28.48;;;;;;;3.55;100.00;103537.97;4998195;28;20114;-71
2021/03/01 03:17:20;;;;;;;51.00;27.63;;;;;;;3.59;100.00;103534.34;5017231;28;20042;-71
2021/03/01 03:19:46;;;;;;;62.97;29.83;;;;;;;3.50;100.00;103534.56;5018571;28;20044;-71
2021/03/01 03:22:12;;;;;;;62.63;30.80;;;;;;;3.41;100.00;103524.25;5002710;28;20519;-71
2021/03/01 03:24:39;;;;;;;58.15;30.42;;;;;;;3.54;100.00;103536.22;5002917;28;20037;-71
2021/03/01 03:27:05;;;;;;;61.38;31.27;;;;;;;3.54;100.00;103536.22;4998610;28;20026;-71
2021/03/01 03:29:31;;;;;;;60.03;30.85;;;;;;;3.59;100.00;103534.34;5001793;28;20041;-71
2021/03/01 03:31:57;;;;;;;62.20;31.77;;;;;;;3.53;100.00;103529.22;5003769;28;20080;-71
2021/03/01 03:34:23;;;;;;;61.35;32.17;;;;;;;3.30;100.00;103484.94;5002334;28;20030;-73
2021/03/01 03:37:21;;;;;;;61.78;31.77;;;;;;;3.67;100.00;103524.44;5001855;28;20377;-73
2021/03/01 03:39:49;;;;;;;52.65;29.67;;;;;;;3.67;100.00;103526.19;5000269;28;20049;-71
2021/03/01 03:42:23;;;;;;;58.25;30.70;;;;;;;3.55;100.00;103505.41;5001485;28;20017;-72
2021/03/01 03:44:53;;;;;;;60.70;31.27;;;;;;;3.58;100.00;103513.25;5004352;28;20065;-71
2021/03/01 03:47:20;;;;;;;58.30;31.65;;;;;;;3.71;100.00;103525.19;5001425;28;20029;-72
2021/03/01 03:49:47;;;;;;;61.67;31.92;;;;;;;3.70;100.00;103526.09;5002074;28;20057;-72
2021/03/01 03:52:15;;;;;;;59.45;32.72;;;;;;;3.54;100.00;103491.34;5002743;28;20033;-71
2021/03/01 03:54:45;;;;;;;60.70;31.38;;;;;;;3.42;100.00;103470.56;5004592;28;20033;-71
2021/03/01 03:57:14;;;;;;;60.65;31.67;;;;;;;3.75;100.00;103518.94;4999321;28;20029;-71
2021/03/01 03:59:42;;;;;;;56.65;30.30;;;;;;;3.74;100.00;103518.97;5000657;28;20061;-71
2021/03/01 04:02:10;;;;;;;57.85;31.83;;;;;;;3.75;100.00;103524.22;5003102;28;20080;-71
2021/03/01 04:04:37;;;;;;;57.53;32.77;;;;;;;3.73;100.00;103531.31;5005441;28;20025;-71
2021/03/01 04:07:05;;;;;;;49.53;29.77;;;;;;;3.55;99.82;103495.72;4998776;28;20430;-72
2021/03/01 04:09:33;;;;;;;53.40;31.20;;;;;;;3.44;99.80;103481.94;5004631;28;20622;-71
2021/03/01 04:12:01;;;;;;;56.30;30.55;;;;;;;3.59;99.70;103504.41;5001179;28;20040;-71
2021/03/01 04:14:27;;;;;;;50.15;29.13;;;;;;;3.74;99.89;103532.16;5002322;28;20038;-72
2021/03/01 04:16:58;;;;;;;55.38;30.15;;;;;;;3.47;99.52;103481.84;4999408;28;20487;-72
2021/03/01 04:19:27;;;;;;;53.75;30.40;;;;;;;3.60;99.55;103511.44;5003663;28;20462;-71
2021/03/01 04:21:56;;;;;;;57.85;32.13;;;;;;;3.68;99.80;103534.09;5001371;28;20069;-71
2021/03/01 04:24:24;;;;;;;58.90;31.73;;;;;;;3.60;100.00;103519.34;5003845;28;20034;-71
2021/03/01 04:26:49;;;;;;;58.45;30.92;;;;;;;3.67;99.74;103535.00;4998478;28;20048;-71
2021/03/01 04:29:16;;;;;;;51.88;29.88;;;;;;;3.67;99.97;103531.47;5004361;28;20033;-71
2021/03/01 04:31:46;;;;;;;58.55;31.08;;;;;;;3.63;99.98;103521.91;5000783;28;20022;-71
2021/03/01 04:34:12;;;;;;;57.95;30.60;;;;;;;3.68;100.00;103533.19;5001913;28;20048;-71
2021/03/01 04:36:39;;;;;;;56.65;30.77;;;;;;;3.57;100.00;103509.75;4995444;28;20587;-71
2021/03/01 04:39:05;;;;;;;51.70;30.83;;;;;;;3.66;99.51;103535.03;5002877;28;20040;-71
2021/03/01 04:41:34;;;;;;;51.08;29.10;;;;;;;3.42;99.83;103483.75;4987022;28;20080;-71
2021/03/01 04:44:00;;;;;;;49.15;28.35;;;;;;;3.62;99.70;103513.09;5005213;28;20069;-71
2021/03/01 04:46:26;;;;;;;50.95;29.42;;;;;;;3.12;99.05;103429.09;5001821;28;20029;-72
2021/03/01 04:48:52;;;;;;;48.92;28.40;;;;;;;3.74;99.63;103522.47;5003495;28;20030;-72
2021/03/01 04:51:18;;;;;;;51.13;30.67;;;;;;;3.59;99.12;103499.13;5005212;28;20050;-71
2021/03/01 04:53:44;;;;;;;51.60;31.02;;;;;;;3.49;98.81;103494.13;5005094;28;20040;-71
2021/03/01 04:56:10;;;;;;;54.22;31.55;;;;;;;3.64;99.33;103521.00;5000907;28;20407;-71
2021/03/01 04:58:37;;;;;;;49.38;30.70;;;;;;;3.69;99.11;103529.66;5004879;28;20034;-71
2021/03/01 05:01:05;;;;;;;53.65;31.48;;;;;;;3.68;98.66;103520.88;5003959;28;20044;-72
2021/03/01 05:03:32;;;;;;;55.00;30.50;;;;;;;3.65;99.08;103515.69;5007092;28;20026;-72
2021/03/01 05:06:02;;;;;;;52.85;30.50;;;;;;;3.66;99.38;103511.28;4997766;28;20042;-71
2021/03/01 05:08:28;;;;;;;51.83;30.27;;;;;;;3.47;99.34;103482.72;5005149;28;20041;-71
2021/03/01 05:10:56;;;;;;;54.75;30.88;;;;;;;3.47;99.47;103485.38;5004568;28;20061;-71
2021/03/01 05:13:22;;;;;;;53.97;31.20;;;;;;;3.70;98.87;103520.81;5007472;28;20046;-72
2021/03/01 05:15:48;;;;;;;59.00;32.70;;;;;;;3.67;98.49;103510.34;5001436;28;20026;-71
2021/03/01 05:18:13;;;;;;;58.78;34.13;;;;;;;3.65;99.06;103513.03;5007126;28;20036;-71
2021/03/01 05:20:39;;;;;;;58.38;33.65;;;;;;;3.45;98.86;103473.97;5004339;28;20033;-71
2021/03/01 05:23:05;;;;;;;53.72;32.13;;;;;;;3.66;98.78;103509.47;5000136;28;20127;-71
2021/03/01 05:25:30;;;;;;;60.28;33.53;;;;;;;3.70;98.77;103518.19;5015818;28;20038;-72
2021/03/01 05:27:56;;;;;;;57.15;31.88;;;;;;;3.73;98.32;103512.81;5005647;28;20301;-72
2021/03/01 05:30:22;;;;;;;58.55;32.88;;;;;;;3.61;98.72;103505.25;4986888;28;20485;-72
2021/03/01 05:32:47;;;;;;;62.72;34.83;;;;;;;3.01;98.67;103403.00;5007549;28;20045;-71
2021/03/01 05:35:13;;;;;;;57.20;32.20;;;;;;;3.67;98.89;103515.63;4982662;28;20022;-71
2021/03/01 05:37:38;;;;;;;61.65;33.05;;;;;;;3.72;98.78;103512.88;5002322;28;20036;-71
2021/03/01 05:40:05;;;;;;;61.55;31.50;;;;;;;3.74;98.27;103513.69;5001541;28;20042;-71
2021/03/01 05:42:33;;;;;;;70.28;34.95;;;;;;;3.56;98.15;103484.25;4986551;28;20045;-71
2021/03/01 05:44:59;;;;;;;62.60;35.40;;;;;;;3.76;97.65;103514.50;5009512;28;20026;-71
2021/03/01 05:47:25;;;;;;;68.00;36.13;;;;;;;3.76;98.09;103511.88;5019512;28;20026;-71
2021/03/01 05:49:53;;;;;;;70.15;36.63;;;;;;;3.46;97.67;103461.66;5003604;28;20481;-72
2021/03/01 05:52:20;;;;;;;65.60;34.05;;;;;;;3.76;98.17;103510.09;5005796;28;20246;-71
2021/03/01 05:54:46;;;;;;;71.47;36.25;;;;;;;3.76;97.57;103511.88;5002228;28;20022;-71
2021/03/01 05:57:12;;;;;;;71.85;36.13;;;;;;;3.75;97.79;103513.66;5000962;28;20567;-71
2021/03/01 05:59:39;;;;;;;68.97;36.55;;;;;;;3.79;97.68;103511.78;5003168;28;20062;-71
2021/03/01 06:02:05;;;;;;;73.00;37.15;;;;;;;3.77;96.94;103508.31;5004195;28;20034;-71
2021/03/01 06:04:31;;;;;;;75.82;39.00;;;;;;;3.44;97.18;103456.41;5000708;28;20503;-71
2021/03/01 06:06:57;;;;;;;75.82;38.65;;;;;;;3.76;96.95;103510.09;5000357;28;20033;-71
2021/03/01 06:09:22;;;;;;;74.38;38.05;;;;;;;3.71;97.03;103519.06;5006713;28;20068;-71
2021/03/01 06:11:57;;;;;;;70.50;37.55;;;;;;;3.73;97.39;103512.81;5004545;28;20045;-71
2021/03/01 06:14:23;;;;;;;70.97;37.95;;;;;;;3.71;97.26;103511.16;5001591;28;20045;-71
2021/03/01 06:17:13;;;;;;;68.93;37.33;;;;;;;3.68;97.12;103509.44;5003218;28;20050;-71
2021/03/01 06:19:46;;;;;;;71.13;35.45;;;;;;;3.46;97.51;103488.06;5004044;28;20026;-71
2021/03/01 06:22:12;;;;;;;67.20;34.65;;;;;;;3.70;97.02;103515.53;5020071;28;20076;-71
2021/03/01 06:24:38;;;;;;;65.00;35.58;;;;;;;3.40;96.98;103467.94;5004913;28;20431;-71
2021/03/01 06:27:04;;;;;;;68.38;35.38;;;;;;;3.66;97.50;103517.41;5001495;28;20053;-71
2021/03/01 06:29:29;;;;;;;71.82;37.88;;;;;;;3.68;97.30;103517.34;5002823;28;20528;-72
2021/03/01 06:31:55;;;;;;;77.47;38.00;;;;;;;3.66;97.77;103517.41;5001193;28;20034;-72
2021/03/01 06:34:22;;;;;;;72.20;36.85;;;;;;;3.67;97.39;103512.97;5001282;28;20026;-72
2021/03/01 06:37:11;;;;;;;65.93;34.53;;;;;;;3.72;97.40;103511.09;4996911;28;20048;-72
2021/03/01 06:39:45;;;;;;;64.57;34.65;;;;;;;3.71;97.11;103511.16;5004610;28;20021;-72
2021/03/01 06:42:16;;;;;;;69.63;35.10;;;;;;;3.68;96.68;103514.72;5002588;28;20040;-72
2021/03/01 06:45:09;;;;;;;68.72;34.60;;;;;;;3.42;97.17;103468.78;4999787;28;20037;-72
2021/03/01 06:47:54;;;;;;;66.03;34.35;;;;;;;3.66;97.11;103516.56;5003465;28;20026;-72
2021/03/01 06:50:36;;;;;;;70.88;34.95;;;;;;;3.67;97.64;103518.25;5006426;28;20058;-72
2021/03/01 06:53:14;;;;;;;70.88;35.95;;;;;;;3.65;97.49;103526.25;5009023;28;20058;-71
2021/03/01 06:56:04;;;;;;;67.38;34.38;;;;;;;3.67;96.95;103519.16;5005272;28;20489;-72
2021/03/01 06:58:38;;;;;;;66.35;35.05;;;;;;;3.57;96.75;103506.22;5007124;28;20087;-72
2021/03/01 07:01:04;;;;;;;66.80;34.63;;;;;;;3.63;96.91;103528.06;5006970;28;20108;-72
2021/03/01 07:03:30;;;;;;;66.57;34.20;;;;;;;3.47;96.94;103495.91;5001806;28;20148;-72
2021/03/01 07:05:57;;;;;;;67.15;34.55;;;;;;;3.40;96.80;103483.78;4996871;28;20064;-72
2021/03/01 07:08:38;;;;;;;70.30;34.08;;;;;;;3.67;96.98;103528.81;5015764;28;20029;-71
2021/03/01 07:11:18;;;;;;;67.93;34.78;;;;;;;3.63;96.52;103530.69;5007937;28;20458;-71
2021/03/01 07:13:44;;;;;;;70.05;35.08;;;;;;;3.65;96.80;103525.38;5008859;28;20025;-71
2021/03/01 07:16:10;;;;;;;69.07;34.65;;;;;;;3.65;96.29;103528.03;5004801;28;20278;-71
2021/03/01 07:18:37;;;;;;;63.47;33.00;;;;;;;3.64;96.50;103532.44;5007359;28;20029;-71
2021/03/01 07:21:02;;;;;;;66.35;33.03;;;;;;;3.61;96.59;103524.56;5009123;28;20084;-71
2021/03/01 07:23:28;;;;;;;64.22;33.35;;;;;;;3.17;96.29;103443.03;5010526;28;20112;-72
2021/03/01 07:25:54;;;;;;;67.95;34.97;;;;;;;3.63;96.29;103538.63;5002424;28;20057;-71
2021/03/01 07:28:21;;;;;;;66.95;34.85;;;;;;;3.67;96.98;103529.72;5007047;28;20117;-71
2021/03/01 07:30:49;;;;;;;67.32;34.15;;;;;;;3.74;96.69;103533.06;5010521;28;20038;-71
2021/03/01 07:33:16;;;;;;;;;;;;;;;3.77;96.12;103534.72;5007362;28;20030;-71
2021/03/01 07:35:42;;;;;;;58.55;30.52;;;;;;;3.74;95.91;103534.81;4999794;28;20434;-72
2021/03/01 07:38:08;;;;;;;56.17;29.85;;;;;;;3.56;95.82;103510.66;5002080;28;20080;-71
2021/03/01 07:40:35;;;;;;;57.35;29.75;;;;;;;3.80;95.15;103539.94;5003228;28;20026;-70
2021/03/01 07:43:02;;;;;;;55.78;29.83;;;;;;;3.80;94.67;103537.28;5004391;28;20033;-67
2021/03/01 07:45:28;;;;;;;60.85;32.25;;;;;;;3.75;94.50;103542.72;5002605;28;20497;-68
2021/03/01 07:47:54;;;;;;;61.55;30.38;;;;;;;3.76;94.96;103539.16;5005506;28;20026;-68
2021/03/01 07:50:35;;;;;;;58.05;31.38;;;;;;;3.79;95.11;103539.09;5014746;28;20583;-68
2021/03/01 07:53:01;;;;;;;55.58;30.45;;;;;;;3.68;94.93;103523.53;4976239;28;20042;-68
2021/03/01 07:55:26;;;;;;;59.85;31.95;;;;;;;3.79;94.83;103539.09;4993801;28;20352;-68
2021/03/01 07:58:04;;;;;;;57.83;31.02;;;;;;;3.81;94.84;103534.59;4997862;28;20057;-68
2021/03/01 08:00:34;;;;;;;56.47;31.47;;;;;;;3.83;94.44;103548.63;4995882;28;20459;-68
2021/03/01 08:03:36;;;;;;;58.72;30.13;;;;;;;3.86;94.52;103546.81;5001278;28;20041;-67
2021/03/01 08:06:02;;;;;;;52.53;28.67;;;;;;;3.92;93.95;103552.81;4997005;28;20544;-71
2021/03/01 08:08:44;;;;;;;58.20;29.58;;;;;;;3.50;94.47;103500.25;5000875;28;20053;-71
2021/03/01 08:11:11;;;;;;;60.17;29.77;;;;;;;3.83;94.35;103558.34;4997366;28;20339;-71
2021/03/01 08:13:37;;;;;;;56.83;30.75;;;;;;;3.80;94.51;103555.78;4999650;28;20557;-71
2021/03/01 08:16:31;;;;;;;51.63;29.35;;;;;;;3.71;94.22;103540.19;4996209;28;20030;-71
2021/03/01 08:18:58;;;;;;;54.17;29.60;;;;;;;3.82;94.18;103554.81;4990459;28;20042;-71
2021/03/01 08:21:28;;;;;;;58.53;31.25;;;;;;;3.87;94.00;103562.63;5000334;28;20041;-71
2021/03/01 08:23:53;;;;;;;50.83;28.90;;;;;;;3.85;93.90;103561.81;5002390;28;20038;-71
2021/03/01 08:26:32;;;;;;;54.58;28.98;;;;;;;3.87;94.18;103556.47;4997015;28;20034;-71
2021/03/01 08:28:59;;;;;;;;;;;;;;;3.89;94.13;103560.81;4997675;28;20034;-71
2021/03/01 08:31:30;;;;;;;54.05;28.92;;;;;;;3.90;94.00;103561.69;4991181;28;19996;-71
2021/03/01 08:34:25;;;;;;;52.15;29.67;;;;;;;3.92;93.90;103558.09;5009381;28;20037;-71
2021/03/01 08:36:51;;;;;;;56.45;30.10;;;;;;;3.81;93.42;103526.66;4991804;28;20030;-71
2021/03/01 08:39:58;;;;;;;51.40;29.23;;;;;;;4.11;93.56;103560.22;4993359;28;20397;-71
2021/03/01 08:42:47;;;;;;;58.13;30.60;;;;;;;4.11;93.18;103568.16;4995560;28;20188;-71
2021/03/01 08:45:20;;;;;;;57.33;30.77;;;;;;;3.80;92.74;103513.53;4990637;28;20038;-71
2021/03/01 08:47:54;;;;;;;61.33;30.27;;;;;;;4.15;92.71;103572.41;4991253;28;20440;-71
2021/03/01 08:50:27;;;;;;;54.25;30.40;;;;;;;4.10;92.80;103563.78;4993757;28;20050;-71
2021/03/01 08:52:53;;;;;;;55.20;29.98;;;;;;;4.06;92.17;103549.78;4993620;28;20034;-71
2021/03/01 08:55:20;;;;;;;57.30;29.90;;;;;;;4.20;92.83;103559.94;4989126;28;21002;-71
2021/03/01 08:58:09;;;;;;;51.42;29.75;;;;;;;4.15;91.61;103567.13;4995263;28;20116;-71
2021/03/01 09:00:38;;;;;;;52.95;30.55;;;;;;;4.17;91.82;103565.31;4991177;28;20108;-71
2021/03/01 09:03:11;;;;;;;50.70;29.52;;;;;;;4.09;92.04;103551.47;4993195;28;20026;-72
2021/03/01 09:05:37;;;;;;;55.13;29.40;;;;;;;4.19;90.83;103560.84;4990366;28;20389;-71
2021/03/01 09:08:04;;;;;;;51.65;28.83;;;;;;;4.17;91.26;103565.31;4994000;28;20026;-71
2021/03/01 09:10:47;;;;;;;50.63;28.45;;;;;;;4.06;91.04;103538.34;4990720;28;20517;-71
2021/03/01 09:13:20;;;;;;;49.40;28.67;;;;;;;4.27;91.39;103574.72;4995806;28;20072;-71
2021/03/01 09:15:47;;;;;;;46.03;26.65;;;;;;;4.25;90.61;103568.63;4988646;28;20127;-71
2021/03/01 09:18:13;;;;;;;38.22;23.48;;;;;;;4.29;89.31;103569.38;4991699;28;20131;-71
2021/03/01 09:20:53;;;;;;;43.20;24.30;;;;;;;4.39;88.71;103564.69;4991387;28;20112;-71
2021/03/01 09:23:54;;;;;;;43.13;25.15;;;;;;;4.37;88.69;103561.22;4994179;28;20030;-71
2021/03/01 09:26:42;;;;;;;40.88;24.42;;;;;;;4.32;87.83;103561.38;4989654;28;20038;-71
2021/03/01 09:29:10;;;;;;;44.60;25.10;;;;;;;4.34;89.22;103558.66;5003103;28;20057;-71
2021/03/01 09:31:51;;;;;;;41.38;25.17;;;;;;;4.45;89.53;103551.28;4993726;28;20022;-71
2021/03/01 09:34:19;;;;;;;37.42;23.23;;;;;;;4.58;87.82;103550.00;4990042;28;20519;-71
2021/03/01 09:36:49;;;;;;;37.28;21.15;;;;;;;4.49;86.57;103525.59;4988823;28;20421;-72
2021/03/01 09:39:21;;;;;;;36.63;22.65;;;;;;;4.62;86.17;103550.75;4990873;28;20029;-71
2021/03/01 09:41:47;;;;;;;40.15;22.92;;;;;;;4.64;87.11;103546.28;4993882;28;20026;-71
2021/03/01 09:44:21;;;;;;;38.60;24.08;;;;;;;4.61;86.43;103546.41;4990919;28;20181;-71
2021/03/01 09:46:49;;;;;;;37.90;22.63;;;;;;;4.58;87.23;103547.34;4995704;28;20087;-71
2021/03/01 09:49:15;;;;;;;36.80;23.60;;;;;;;4.26;86.99;103493.69;4996520;28;20053;-71
2021/03/01 09:51:41;;;;;;;35.40;21.23;;;;;;;4.69;86.57;103548.78;4996125;28;20057;-71
2021/03/01 09:54:08;;;;;;;33.97;22.52;;;;;;;4.53;87.04;103517.56;4998886;28;20597;-71
2021/03/01 09:56:49;;;;;;;35.92;22.73;;;;;;;4.64;85.80;103546.28;4995025;28;20167;-71
2021/03/01 09:59:32;;;;;;;36.63;22.88;;;;;;;4.55;87.38;103538.66;4998066;28;20431;-71
2021/03/01 10:02:11;;;;;;;34.95;22.52;;;;;;;4.43;87.10;103535.47;4995448;28;20029;-71
2021/03/01 10:04:38;;;;;;;32.97;20.80;;;;;;;4.61;86.42;103551.69;4995353;28;20083;-71
2021/03/01 10:07:21;;;;;;;37.72;22.17;;;;;;;4.58;86.33;103546.50;5006424;28;20172;-71
2021/03/01 10:09:48;;;;;;;36.20;21.65;;;;;;;4.62;85.82;103545.47;4994992;28;20602;-71
2021/03/01 10:12:14;;;;;;;32.67;20.75;;;;;;;4.66;86.22;103535.69;4996395;28;20030;-71
2021/03/01 10:14:41;;;;;;;33.15;21.73;;;;;;;4.53;84.94;103525.50;4998492;28;20444;-71
2021/03/01 10:17:23;;;;;;;35.20;21.83;;;;;;;4.54;86.07;103528.97;4997092;28;20034;-72
2021/03/01 10:19:48;;;;;;;36.75;20.67;;;;;;;4.70;86.02;103545.22;4994713;28;20116;-72
2021/03/01 10:22:14;;;;;;;34.42;21.75;;;;;;;4.75;85.81;103530.09;4994932;28;20115;-72
2021/03/01 10:24:47;;;;;;;34.85;21.23;;;;;;;4.81;85.96;103524.63;4995672;28;20588;-72
2021/03/01 10:27:14;;;;;;;32.05;20.88;;;;;;;4.83;85.26;103520.13;4994254;28;20038;-72
2021/03/01 10:29:45;;;;;;;34.00;20.85;;;;;;;4.97;83.85;103524.09;4999034;28;20120;-72
2021/03/01 10:32:22;;;;;;;33.92;20.52;;;;;;;5.10;83.82;103527.22;4993043;28;20148;-72
2021/03/01 10:34:49;;;;;;;34.23;21.23;;;;;;;5.16;84.20;103533.16;4993499;28;20025;-72
2021/03/01 10:37:16;;;;;;;35.45;21.10;;;;;;;5.21;84.44;103522.41;5007483;28;20483;-71
2021/03/01 10:39:47;;;;;;;35.75;20.50;;;;;;;5.39;83.65;103547.41;4993196;28;20342;-72
2021/03/01 10:42:17;;;;;;;34.08;20.92;;;;;;;5.40;83.13;103543.84;4992115;28;20127;-72
2021/03/01 10:44:53;;;;;;;34.00;21.98;;;;;;;5.49;83.80;103547.94;4991326;28;20030;-72
2021/03/01 10:47:20;;;;;;;36.78;21.50;;;;;;;5.54;82.53;103543.38;4995301;28;20038;-71
2021/03/01 10:49:48;;;;;;;37.67;21.02;;;;;;;5.45;83.32;103547.19;5005812;28;20052;-71
2021/03/01 10:52:16;;;;;;;33.65;21.35;;;;;;;5.47;82.92;103547.13;5008650;28;20046;-71
2021/03/01 10:54:42;;;;;;;36.80;22.65;;;;;;;5.34;83.13;103522.88;4996154;28;20472;-71
2021/03/01 10:57:08;;;;;;;36.75;22.30;;;;;;;5.48;83.51;103546.22;4970187;28;20704;-71
2021/03/01 10:59:34;;;;;;;35.78;21.95;;;;;;;5.28;82.70;103513.34;4995485;28;20034;-71
2021/03/01 11:02:01;;;;;;;35.40;21.55;;;;;;;5.55;83.68;103541.56;4995194;28;20042;-71
2021/03/01 11:04:27;;;;;;;34.15;20.98;;;;;;;5.74;82.52;103544.44;4995038;28;20034;-71
2021/03/01 11:06:53;;;;;;;35.13;22.67;;;;;;;5.81;82.59;103540.66;4992699;28;20703;-71
2021/03/01 11:09:20;;;;;;;36.95;20.88;;;;;;;5.77;82.06;103547.81;4994543;28;20029;-71
2021/03/01 11:11:47;;;;;;;33.38;20.02;;;;;;;5.75;81.95;103552.34;4995620;28;20100;-72
2021/03/01 11:14:14;;;;;;;34.58;21.33;;;;;;;5.83;82.65;103547.63;4995507;28;20492;-72
2021/03/01 11:16:39;;;;;;;32.70;20.40;;;;;;;5.92;82.33;103548.19;4986839;28;20212;-72
2021/03/01 11:19:06;;;;;;;34.53;20.60;;;;;;;5.80;80.92;103504.47;4990855;28;20057;-72
2021/03/01 11:21:32;;;;;;;34.42;21.10;;;;;;;6.04;81.39;103537.16;5003156;28;20032;-72
2021/03/01 11:23:58;;;;;;;31.08;20.35;;;;;;;5.77;80.18;103491.31;4992352;28;20552;-73
2021/03/01 11:26:24;;;;;;;35.17;21.80;;;;;;;6.19;81.28;103537.50;4991911;28;20045;-73